createdAt,value
2023-04-16T00:00:17.387Z,9.04
2023-04-16T00:03:03.861Z,8.73
2023-04-16T00:05:50.587Z,8.91
2023-04-16T00:08:37.217Z,9.05
2023-04-16T00:11:24.708Z,8.95
2023-04-16T00:14:11.234Z,8.95
2023-04-16T00:16:57.656Z,8.96
2023-04-16T00:19:43.965Z,8.89
2023-04-16T00:22:30.308Z,9.03
2023-04-16T00:25:16.481Z,8.98
2023-04-16T00:28:04.079Z,8.87
2023-04-16T00:30:50.195Z,8.72
2023-04-16T00:33:36.885Z,8.86
2023-04-16T00:36:24.425Z,8.72
2023-04-16T00:39:10.811Z,8.74
2023-04-16T00:41:57.469Z,8.55
2023-04-16T00:44:45.300Z,8.71
2023-04-16T00:47:32.315Z,8.87
2023-04-16T00:50:18.860Z,8.93
2023-04-16T00:53:05.150Z,9.00
2023-04-16T00:55:51.637Z,8.79
2023-04-16T00:58:38.214Z,8.76
2023-04-16T01:01:25.793Z,8.80
2023-04-16T01:04:11.941Z,8.82
2023-04-16T01:06:58.404Z,8.72
2023-04-16T01:09:44.493Z,8.80
2023-04-16T01:12:32.462Z,8.82
2023-04-16T01:15:18.961Z,8.86
2023-04-16T01:18:14.889Z,9.09
2023-04-16T01:21:02.530Z,9.06
2023-04-16T01:23:48.850Z,8.88
2023-04-16T01:26:35.071Z,8.99
2023-04-16T01:29:21.488Z,9.08
2023-04-16T01:32:09.014Z,9.03
2023-04-16T01:34:58.402Z,9.24
2023-04-16T01:37:46.218Z,9.08
2023-04-16T01:40:32.505Z,8.96
2023-04-16T01:43:18.769Z,9.19
2023-04-16T01:46:19.012Z,9.18
2023-04-16T01:49:07.146Z,9.15
2023-04-16T01:51:53.426Z,9.26
2023-04-16T01:54:41.232Z,9.42
2023-04-16T01:57:27.619Z,9.38
2023-04-16T02:00:14.110Z,9.38
2023-04-16T02:03:09.542Z,9.43
2023-04-16T02:05:55.883Z,9.44
2023-04-16T02:08:42.442Z,9.43
2023-04-16T02:11:30.291Z,9.62
2023-04-16T02:14:16.586Z,9.57
2023-04-16T02:17:03.704Z,9.74
2023-04-16T02:19:56.668Z,9.91
2023-04-16T02:22:43.741Z,9.62
2023-04-16T02:25:33.291Z,9.61
2023-04-16T02:28:21.349Z,9.96
2023-04-16T02:31:07.484Z,9.89
2023-04-16T02:34:00.388Z,9.78
2023-04-16T02:36:46.714Z,9.69
2023-04-16T02:39:32.694Z,9.85
2023-04-16T02:42:19.081Z,9.77
2023-04-16T02:45:07.826Z,9.71
2023-04-16T02:47:54.438Z,9.93
2023-04-16T02:50:40.966Z,9.65
2023-04-16T02:53:27.213Z,10.06
2023-04-16T02:56:13.620Z,10.15
2023-04-16T02:58:59.895Z,9.98
2023-04-16T03:01:50.439Z,9.95
2023-04-16T03:04:37.087Z,9.99
2023-04-16T03:07:23.312Z,9.45
2023-04-16T03:10:09.977Z,9.70
2023-04-16T03:12:56.128Z,9.86
2023-04-16T03:15:42.829Z,9.80
2023-04-16T03:18:30.821Z,9.75
2023-04-16T03:21:17.232Z,10.12
2023-04-16T03:24:03.275Z,10.01
2023-04-16T03:26:49.529Z,10.19
2023-04-16T03:29:37.696Z,10.56
2023-04-16T03:32:25.538Z,10.58
2023-04-16T03:35:13.663Z,9.89
2023-04-16T03:37:59.891Z,10.06
2023-04-16T03:40:46.659Z,10.03
2023-04-16T03:43:34.508Z,9.95
2023-04-16T03:46:20.592Z,10.33
2023-04-16T03:49:06.795Z,9.91
2023-04-16T03:51:54.917Z,9.76
2023-04-16T03:54:41.132Z,9.58
2023-04-16T03:57:38.886Z,9.43
2023-04-16T04:00:30.563Z,9.62
2023-04-16T04:03:26.136Z,9.48
2023-04-16T04:06:14.144Z,9.69
2023-04-16T04:09:02.274Z,9.49
2023-04-16T04:11:48.865Z,9.43
2023-04-16T04:14:39.641Z,9.34
2023-04-16T04:17:27.567Z,9.37
2023-04-16T04:20:13.814Z,9.39
2023-04-16T04:23:03.766Z,9.05
2023-04-16T04:25:51.235Z,9.40
2023-04-16T04:28:37.938Z,9.50
2023-04-16T04:31:24.575Z,9.39
2023-04-16T04:34:11.135Z,9.20
2023-04-16T04:36:57.229Z,9.27
2023-04-16T04:39:47.856Z,9.27
2023-04-16T04:42:36.009Z,9.32
2023-04-16T04:45:25.358Z,9.48
2023-04-16T04:48:12.817Z,9.40
2023-04-16T04:50:58.908Z,9.60
2023-04-16T04:53:44.988Z,9.57
2023-04-16T04:56:31.061Z,9.43
2023-04-16T04:59:18.430Z,9.57
2023-04-16T05:02:04.871Z,9.48
2023-04-16T05:04:51.347Z,9.28
2023-04-16T05:07:37.785Z,9.28
2023-04-16T05:10:23.850Z,9.25
2023-04-16T05:13:10.024Z,9.41
2023-04-16T05:15:57.863Z,9.36
2023-04-16T05:18:44.088Z,9.27
2023-04-16T05:21:30.737Z,9.19
2023-04-16T05:24:16.950Z,9.12
2023-04-16T05:27:03.322Z,9.06
2023-04-16T05:29:49.658Z,9.30
2023-04-16T05:32:38.014Z,9.34
2023-04-16T05:35:24.226Z,9.44
2023-04-16T05:38:10.270Z,9.19
2023-04-16T05:40:56.855Z,9.17
2023-04-16T05:43:43.196Z,9.39
2023-04-16T05:46:29.739Z,9.44
2023-04-16T05:49:18.719Z,9.14
2023-04-16T05:52:05.731Z,9.47
2023-04-16T05:54:51.912Z,9.25
2023-04-16T05:57:38.139Z,9.15
2023-04-16T06:00:24.143Z,9.39
2023-04-16T06:03:10.850Z,9.57
2023-04-16T06:05:59.113Z,9.38
2023-04-16T06:08:45.923Z,9.56
2023-04-16T06:11:32.911Z,9.35
2023-04-16T06:14:20.638Z,9.37
2023-04-16T06:17:06.676Z,9.50
2023-04-16T06:19:52.932Z,9.29
2023-04-16T06:22:40.486Z,9.50
2023-04-16T06:25:26.900Z,9.21
2023-04-16T06:28:12.870Z,9.38
2023-04-16T06:30:59.139Z,9.59
2023-04-16T06:33:45.684Z,9.51
2023-04-16T06:36:31.872Z,9.64
2023-04-16T06:39:21.653Z,9.65
2023-04-16T06:42:07.756Z,9.97
2023-04-16T06:44:53.795Z,9.77
2023-04-16T06:47:39.939Z,9.56
2023-04-16T06:50:28.149Z,9.80
2023-04-16T06:53:14.171Z,9.75
2023-04-16T06:56:01.460Z,9.57
2023-04-16T06:58:48.288Z,9.78
2023-04-16T07:01:34.673Z,9.86
2023-04-16T07:04:21.916Z,10.30
2023-04-16T07:07:08.396Z,10.23
2023-04-16T07:09:54.811Z,9.95
2023-04-16T07:12:44.921Z,9.84
2023-04-16T07:15:31.160Z,9.86
2023-04-16T07:18:20.856Z,9.58
2023-04-16T07:21:09.405Z,9.64
2023-04-16T07:23:55.638Z,9.78
2023-04-16T07:26:42.048Z,10.02
2023-04-16T07:29:32.589Z,9.70
2023-04-16T07:32:18.915Z,9.50
2023-04-16T07:35:06.126Z,9.85
2023-04-16T07:37:52.441Z,9.70
2023-04-16T07:40:39.080Z,9.67
2023-04-16T07:43:28.454Z,9.66
2023-04-16T07:46:16.100Z,9.70
2023-04-16T07:49:02.504Z,9.59
2023-04-16T07:51:48.790Z,9.60
2023-04-16T07:54:39.250Z,9.67
2023-04-16T07:57:25.883Z,9.60
2023-04-16T08:00:16.431Z,9.71
2023-04-16T08:03:04.939Z,9.71
2023-04-16T08:05:52.249Z,9.80
2023-04-16T08:08:43.829Z,9.73
2023-04-16T08:11:30.549Z,9.93
2023-04-16T08:14:16.819Z,9.99
2023-04-16T08:17:03.133Z,9.94
2023-04-16T08:19:51.548Z,9.82
2023-04-16T08:22:40.028Z,9.87
2023-04-16T08:25:31.490Z,9.68
2023-04-16T08:28:17.917Z,9.87
2023-04-16T08:31:06.360Z,10.04
2023-04-16T08:33:55.085Z,10.04
2023-04-16T08:36:42.604Z,10.21
2023-04-16T08:39:29.566Z,10.20
2023-04-16T08:42:32.007Z,10.19
2023-04-16T08:45:18.860Z,10.27
2023-04-16T08:48:08.155Z,10.17
2023-04-16T08:50:55.769Z,10.32
2023-04-16T08:53:53.619Z,10.35
2023-04-16T08:56:43.315Z,10.45
2023-04-16T08:59:30.512Z,10.42
2023-04-16T09:02:21.090Z,10.71
2023-04-16T09:05:09.216Z,10.79
2023-04-16T09:07:55.743Z,11.24
2023-04-16T09:10:44.674Z,11.05
2023-04-16T09:13:32.346Z,10.76
2023-04-16T09:16:19.538Z,11.12
2023-04-16T09:19:06.167Z,10.83
2023-04-16T09:21:55.707Z,10.52
2023-04-16T09:24:41.943Z,10.67
2023-04-16T09:27:32.847Z,11.05
2023-04-16T09:30:27.154Z,10.82
2023-04-16T09:33:16.550Z,11.14
2023-04-16T09:36:03.105Z,11.09
2023-04-16T09:38:52.467Z,11.02
2023-04-16T09:41:41.399Z,11.01
2023-04-16T09:44:37.901Z,11.28
2023-04-16T09:47:24.875Z,11.06
2023-04-16T09:50:19.027Z,11.29
2023-04-16T09:53:06.833Z,10.91
2023-04-16T09:55:53.235Z,11.08
2023-04-16T09:58:40.601Z,10.99
2023-04-16T10:01:31.885Z,11.15
2023-04-16T10:04:19.867Z,11.02
2023-04-16T10:07:07.413Z,10.78
2023-04-16T10:09:55.777Z,10.82
2023-04-16T10:12:43.589Z,10.79
2023-04-16T10:15:32.730Z,10.89
2023-04-16T10:18:20.581Z,10.73
2023-04-16T10:21:13.045Z,11.07
2023-04-16T10:23:59.634Z,11.33
2023-04-16T10:26:46.508Z,10.93
2023-04-16T10:29:36.964Z,11.10
2023-04-16T10:32:28.335Z,11.43
2023-04-16T10:35:20.535Z,11.28
2023-04-16T10:38:32.487Z,11.19
2023-04-16T10:41:21.152Z,11.20
2023-04-16T10:44:10.018Z,11.13
2023-04-16T10:46:59.863Z,10.93
2023-04-16T10:49:48.902Z,11.34
2023-04-16T10:52:36.534Z,11.10
2023-04-16T10:55:22.878Z,11.46
2023-04-16T10:58:32.492Z,11.20
2023-04-16T11:01:19.834Z,11.31
2023-04-16T11:04:28.235Z,11.21
2023-04-16T11:07:21.091Z,11.22
2023-04-16T11:10:14.816Z,11.37
2023-04-16T11:13:04.495Z,11.32
2023-04-16T11:15:52.780Z,11.95
2023-04-16T11:18:43.578Z,11.64
2023-04-16T11:21:38.300Z,11.84
2023-04-16T11:24:26.220Z,11.79
2023-04-16T11:27:17.501Z,12.09
2023-04-16T11:30:05.896Z,11.66
2023-04-16T11:32:52.238Z,11.65
2023-04-16T11:35:39.758Z,11.86
2023-04-16T11:38:36.450Z,12.03
2023-04-16T11:41:25.842Z,12.01
2023-04-16T11:44:21.116Z,11.68
2023-04-16T11:47:07.945Z,11.87
2023-04-16T11:49:54.620Z,11.62
2023-04-16T11:52:42.341Z,11.76
2023-04-16T11:55:29.064Z,11.87
2023-04-16T11:58:17.075Z,12.28
2023-04-16T12:01:06.054Z,12.05
2023-04-16T12:04:03.263Z,11.91
2023-04-16T12:07:09.395Z,11.68
2023-04-16T12:10:07.033Z,12.34
2023-04-16T12:12:53.480Z,12.42
2023-04-16T12:15:47.170Z,12.05
2023-04-16T12:18:34.737Z,12.22
2023-04-16T12:21:21.166Z,12.18
2023-04-16T12:24:09.062Z,12.34
2023-04-16T12:26:57.520Z,12.36
2023-04-16T12:29:43.881Z,12.34
2023-04-16T12:32:30.262Z,12.04
2023-04-16T12:35:32.280Z,12.25
2023-04-16T12:38:18.973Z,12.78
2023-04-16T12:41:06.341Z,12.36
2023-04-16T12:43:52.941Z,12.68
2023-04-16T12:55:54.147Z,12.92
2023-04-16T12:58:41.877Z,12.87
2023-04-16T13:01:28.304Z,13.21
2023-04-16T13:04:15.914Z,12.88
2023-04-16T13:08:04.295Z,13.22
2023-04-16T13:11:06.251Z,12.87
2023-04-16T13:13:53.649Z,13.00
2023-04-16T13:16:40.158Z,13.36
2023-04-16T13:19:26.637Z,13.23
2023-04-16T13:22:13.216Z,13.79
2023-04-16T13:24:59.675Z,13.57
2023-04-16T13:27:46.103Z,13.29
2023-04-16T13:30:34.365Z,13.92
2023-04-16T13:33:21.698Z,13.86
2023-04-16T13:36:08.295Z,13.65
2023-04-16T13:38:54.566Z,13.84
2023-04-16T13:41:41.568Z,14.22
2023-04-16T13:44:27.921Z,14.59
2023-04-16T13:47:16.008Z,13.97
2023-04-16T13:50:02.185Z,13.63
2023-04-16T13:52:48.737Z,13.76
2023-04-16T13:55:35.548Z,13.65
2023-04-16T13:58:25.567Z,13.43
2023-04-16T14:01:14.362Z,13.17
2023-04-16T14:04:06.191Z,13.56
2023-04-16T14:06:53.038Z,13.54
2023-04-16T14:09:39.452Z,13.44
2023-04-16T14:12:26.254Z,13.66
2023-04-16T14:15:14.688Z,13.92
2023-04-16T14:18:02.028Z,14.40
2023-04-16T14:20:49.801Z,14.25
2023-04-16T14:23:35.981Z,13.94
2023-04-16T14:26:22.586Z,13.92
2023-04-16T14:29:09.974Z,13.44
2023-04-16T14:31:57.228Z,13.04
2023-04-16T14:34:44.588Z,13.27
2023-04-16T14:42:25.964Z,13.67
2023-04-16T14:58:15.958Z,13.26
2023-04-16T15:01:17.680Z,13.36
2023-04-16T15:04:04.086Z,13.31
2023-04-16T15:07:01.719Z,13.68
2023-04-16T15:09:49.441Z,13.55
2023-04-16T15:12:35.943Z,12.98
2023-04-16T15:15:25.192Z,13.12
2023-04-16T15:21:49.381Z,12.95
2023-04-16T15:24:35.928Z,12.62
2023-04-16T15:27:25.564Z,12.49
2023-04-16T15:30:12.603Z,12.64
2023-04-16T15:32:59.021Z,12.28
2023-04-16T15:35:45.637Z,12.18
2023-04-16T15:38:32.230Z,12.52
2023-04-16T15:41:21.706Z,12.92
2023-04-16T15:44:09.370Z,12.74
2023-04-16T15:46:56.491Z,12.36
2023-04-16T15:49:43.247Z,12.37
2023-04-16T15:52:31.259Z,12.42
2023-04-16T15:55:19.181Z,12.47
2023-04-16T15:58:05.735Z,12.50
2023-04-16T16:00:53.717Z,12.66
2023-04-16T16:03:40.443Z,12.74
2023-04-16T16:06:27.292Z,13.36
2023-04-16T16:09:13.879Z,13.34
2023-04-16T16:12:00.151Z,13.29
2023-04-16T16:14:46.747Z,13.53
2023-04-16T16:17:34.776Z,13.37
2023-04-16T16:20:22.560Z,12.65
2023-04-16T16:23:08.805Z,13.19
2023-04-16T16:25:55.292Z,13.44
2023-04-16T16:28:43.712Z,12.74
2023-04-16T16:31:29.920Z,12.68
2023-04-16T16:34:21.095Z,12.85
2023-04-16T16:37:07.888Z,12.70
2023-04-16T16:40:19.692Z,12.74
2023-04-16T16:43:06.519Z,12.82
2023-04-16T16:45:52.966Z,12.76
2023-04-16T16:48:39.465Z,13.29
2023-04-16T16:51:27.581Z,13.15
2023-04-16T16:54:13.736Z,12.77
2023-04-16T16:56:59.933Z,12.13
2023-04-16T16:59:46.522Z,12.46
2023-04-16T17:02:32.912Z,12.69
2023-04-16T17:05:19.844Z,12.62
2023-04-16T17:08:07.883Z,12.33
2023-04-16T17:10:53.957Z,12.15
2023-04-16T17:13:40.478Z,12.43
2023-04-16T17:27:50.147Z,11.71
2023-04-16T17:30:36.215Z,11.85
2023-04-16T17:33:22.780Z,11.47
2023-04-16T17:36:09.672Z,11.31
2023-04-16T17:38:55.960Z,11.17
2023-04-16T17:41:42.262Z,11.09
2023-04-16T17:44:29.988Z,10.96
2023-04-16T18:34:52.650Z,10.93
2023-04-16T19:12:41.909Z,10.74
2023-04-16T19:28:24.626Z,10.50
2023-04-16T19:31:11.221Z,10.62
2023-04-16T19:33:57.805Z,10.57
2023-04-16T19:36:44.838Z,10.48
2023-04-16T19:39:31.609Z,10.35
2023-04-16T19:42:18.052Z,10.35
2023-04-16T19:45:07.270Z,10.34
2023-04-16T19:48:16.187Z,10.80
2023-04-16T19:51:03.658Z,10.75
2023-04-16T19:53:49.978Z,10.64
2023-04-16T19:56:36.620Z,10.62
2023-04-16T19:59:24.919Z,10.56
2023-04-16T20:02:13.550Z,10.53
2023-04-16T20:05:01.926Z,10.51
2023-04-16T20:07:56.176Z,10.74
2023-04-16T20:10:42.606Z,10.56
2023-04-16T20:13:29.314Z,10.39
2023-04-16T20:16:15.289Z,10.10
2023-04-16T20:19:05.803Z,10.09
2023-04-16T20:21:53.481Z,10.14
2023-04-16T20:24:39.629Z,10.30
2023-04-16T20:27:25.862Z,10.48
2023-04-16T20:30:14.955Z,10.62
2023-04-16T20:33:01.772Z,10.57
2023-04-16T20:35:52.072Z,10.46
2023-04-16T20:38:38.846Z,10.34
2023-04-16T20:41:27.278Z,9.98
2023-04-16T20:44:18.184Z,9.94
2023-04-16T20:47:04.988Z,9.81
2023-04-16T20:49:52.878Z,9.96
2023-04-16T20:52:42.209Z,10.11
2023-04-16T20:55:28.663Z,10.35
2023-04-16T20:58:15.148Z,10.13
2023-04-16T21:01:01.852Z,10.21
2023-04-16T21:03:48.097Z,10.36
2023-04-16T21:06:38.541Z,10.45
2023-04-16T21:09:26.160Z,10.11
2023-04-16T21:12:13.002Z,10.16
2023-04-16T21:14:59.534Z,10.06
2023-04-16T21:22:39.714Z,10.20
2023-04-16T21:36:45.515Z,9.82
2023-04-16T21:39:35.108Z,9.78
2023-04-16T21:42:21.384Z,9.91
2023-04-16T21:45:09.249Z,9.47
2023-04-16T21:47:55.328Z,9.77
2023-04-16T21:50:42.825Z,9.62
2023-04-16T21:53:30.864Z,9.49
2023-04-16T21:56:17.191Z,9.68
2023-04-16T21:59:03.194Z,9.80
2023-04-16T22:01:49.660Z,9.89
2023-04-16T22:04:38.468Z,10.05
2023-04-16T22:07:27.139Z,10.25
2023-04-16T22:10:15.181Z,9.95
2023-04-16T22:13:01.664Z,9.86
2023-04-16T22:15:47.850Z,10.05
2023-04-16T22:18:34.010Z,10.18
2023-04-16T22:21:20.262Z,10.13
2023-04-16T22:24:08.222Z,10.15
2023-04-16T22:26:54.571Z,10.23
2023-04-16T22:29:41.079Z,10.37
2023-04-16T22:32:27.435Z,10.49
2023-04-16T22:35:14.031Z,10.53
2023-04-16T22:38:00.421Z,10.54
2023-04-16T22:40:49.590Z,10.26
2023-04-16T22:43:37.063Z,10.00
2023-04-16T22:46:24.681Z,10.07
2023-04-16T22:49:11.674Z,10.16
2023-04-16T22:51:58.670Z,9.97
2023-04-16T22:54:45.335Z,10.17
2023-04-16T22:57:33.176Z,9.74
2023-04-16T23:00:19.930Z,9.87
2023-04-16T23:03:06.302Z,9.72
2023-04-16T23:05:52.890Z,9.67
2023-04-16T23:08:39.238Z,9.76
2023-04-16T23:11:25.768Z,9.78
2023-04-16T23:14:16.220Z,9.64
2023-04-16T23:17:05.335Z,9.71
2023-04-16T23:19:51.674Z,9.59
2023-04-16T23:22:37.678Z,9.54
2023-04-16T23:25:23.688Z,9.66
2023-04-16T23:28:09.846Z,9.76
2023-04-16T23:30:57.604Z,9.71
2023-04-16T23:33:43.794Z,9.81
2023-04-16T23:36:29.812Z,9.99
2023-04-16T23:39:16.182Z,10.19
2023-04-16T23:42:02.407Z,10.27
2023-04-16T23:44:48.604Z,10.41
2023-04-16T23:47:36.402Z,10.25
2023-04-16T23:50:22.650Z,10.21
2023-04-16T23:53:09.013Z,10.02
2023-04-16T23:55:55.547Z,10.09
2023-04-16T23:58:41.660Z,9.98
